Time;durP1;ratioP1;P1;durP2;ratioP2;P2;SDS_P1;SDS_P2;PMS_P1;PMS_P2;Temp;Humidity;BMP_temperature;BMP_pressure;BME280_temperature;BME280_humidity;BME280_pressure;Samples;Min_cycle;Max_cycle;Signal;HPM_P1;HPM_P2
2023/09/18 00:00:15;;;;;;;16.88;14.77;;;;;;;18.27;100.00;100561.81;5070684;28;20468;-75
2023/09/18 00:02:40;;;;;;;18.67;16.17;;;;;;;18.16;100.00;100540.50;5062434;28;20025;-75
2023/09/18 00:05:06;;;;;;;19.73;16.63;;;;;;;18.22;100.00;100548.91;5070150;28;20024;-75
2023/09/18 00:07:31;;;;;;;19.27;16.13;;;;;;;18.21;100.00;100552.50;5062810;28;20032;-75
2023/09/18 00:09:56;;;;;;;18.92;16.83;;;;;;;18.17;100.00;100539.56;5067879;28;20032;-75
2023/09/18 00:12:22;;;;;;;18.23;16.33;;;;;;;18.22;100.00;100545.41;5066017;28;20060;-75
2023/09/18 00:14:49;;;;;;;18.38;16.17;;;;;;;18.14;100.00;100537.09;5056432;28;20475;-75
2023/09/18 00:17:14;;;;;;;17.52;15.48;;;;;;;18.19;100.00;100529.78;5074479;28;20098;-75
2023/09/18 00:19:40;;;;;;;18.48;16.40;;;;;;;18.22;100.00;100529.59;5068051;28;20472;-75
2023/09/18 00:22:06;;;;;;;19.13;16.33;;;;;;;18.18;100.00;100517.50;5067760;28;20064;-75
2023/09/18 00:24:31;;;;;;;18.05;16.10;;;;;;;18.22;100.00;100526.94;5073958;28;20028;-75
2023/09/18 00:26:57;;;;;;;19.95;15.75;;;;;;;18.15;100.00;100504.53;5068780;28;20410;-75
2023/09/18 00:29:22;;;;;;;17.02;15.10;;;;;;;18.21;100.00;100505.00;5071299;28;20031;-75
2023/09/18 00:31:48;;;;;;;16.30;14.60;;;;;;;18.22;100.00;100506.69;5067949;28;20017;-75
2023/09/18 00:34:13;;;;;;;17.33;14.85;;;;;;;18.21;100.00;100496.22;5071466;28;20028;-75
2023/09/18 00:36:38;;;;;;;19.48;14.20;;;;;;;18.19;100.00;100493.69;5072663;28;20090;-75
2023/09/18 00:39:04;;;;;;;15.85;13.38;;;;;;;18.22;100.00;100492.66;5070664;28;20021;-75
2023/09/18 00:41:29;;;;;;;15.50;13.90;;;;;;;18.22;100.00;100476.81;5072648;28;20039;-75
2023/09/18 00:43:55;;;;;;;16.55;14.05;;;;;;;18.18;100.00;100470.88;5069564;28;20028;-75
2023/09/18 00:46:21;;;;;;;15.02;13.48;;;;;;;18.19;100.00;100459.38;5073405;28;20115;-75
2023/09/18 00:48:46;;;;;;;16.17;13.63;;;;;;;18.24;100.00;100474.91;5069074;28;20072;-75
2023/09/18 00:51:13;;;;;;;15.93;12.98;;;;;;;18.27;100.00;100469.47;5072720;28;20044;-75
2023/09/18 00:53:39;;;;;;;16.00;12.85;;;;;;;18.22;100.00;100468.91;5069277;28;20031;-75
2023/09/18 00:56:04;;;;;;;14.80;13.25;;;;;;;18.21;100.00;100461.91;5071520;28;20099;-75
2023/09/18 00:58:30;;;;;;;14.77;13.23;;;;;;;18.21;100.00;100460.16;5070097;28;20061;-75
2023/09/18 01:00:56;;;;;;;18.20;13.77;;;;;;;18.21;100.00;100456.63;5071345;28;20051;-75
2023/09/18 01:03:22;;;;;;;15.57;13.55;;;;;;;18.18;100.00;100455.06;5071674;28;20361;-75
2023/09/18 01:05:48;;;;;;;17.50;13.25;;;;;;;18.16;100.00;100446.38;5069017;28;20028;-75
2023/09/18 01:08:13;;;;;;;14.63;13.07;;;;;;;18.14;100.00;100432.41;5071437;28;20046;-75
2023/09/18 01:11:03;;;;;;;17.27;12.88;;;;;;;18.13;100.00;100417.53;5069997;28;20024;-75
2023/09/18 01:13:34;;;;;;;15.82;12.77;;;;;;;18.22;100.00;100437.25;5072345;28;20127;-75
2023/09/18 01:16:14;;;;;;;14.40;12.90;;;;;;;18.25;100.00;100421.22;5069037;28;20069;-75
2023/09/18 01:18:48;;;;;;;15.00;13.07;;;;;;;18.26;100.00;100409.72;5070528;28;20025;-75
2023/09/18 01:21:14;;;;;;;14.70;12.52;;;;;;;18.22;100.00;100401.16;5069851;28;20115;-75
2023/09/18 01:23:39;;;;;;;13.90;11.65;;;;;;;18.14;100.00;100392.00;5071835;28;20107;-75
2023/09/18 01:26:05;;;;;;;13.95;11.45;;;;;;;18.28;100.00;100428.09;5069969;28;20054;-75
2023/09/18 01:28:31;;;;;;;15.65;12.23;;;;;;;18.18;100.00;100406.69;5072656;28;20067;-75
2023/09/18 01:30:56;;;;;;;15.77;11.38;;;;;;;18.24;100.00;100412.44;5069849;28;20112;-75
2023/09/18 01:33:22;;;;;;;12.48;10.70;;;;;;;18.25;100.00;100405.41;5071914;28;20119;-75
2023/09/18 01:35:49;;;;;;;14.55;11.25;;;;;;;18.28;100.00;100417.53;5071935;28;20032;-75
2023/09/18 01:38:14;;;;;;;19.30;11.07;;;;;;;18.29;100.00;100409.53;5068853;28;20028;-75
2023/09/18 01:40:40;;;;;;;13.43;11.30;;;;;;;18.37;100.00;100431.00;5072278;28;20033;-75
2023/09/18 01:43:06;;;;;;;13.98;10.15;;;;;;;18.39;100.00;100425.63;5068484;28;20033;-75
2023/09/18 01:45:32;;;;;;;12.10;10.30;;;;;;;18.37;100.00;100425.72;5071890;28;20082;-75
2023/09/18 01:47:58;;;;;;;12.68;9.95;;;;;;;18.35;100.00;100417.06;5068629;28;20471;-75
2023/09/18 01:50:23;;;;;;;15.02;10.15;;;;;;;18.40;100.00;100428.16;5071699;28;20131;-75
2023/09/18 01:52:48;;;;;;;14.23;10.25;;;;;;;18.45;100.00;100431.38;5067877;28;20027;-75
2023/09/18 01:55:14;;;;;;;14.02;10.05;;;;;;;18.43;100.00;100413.94;5071382;28;20024;-75
2023/09/18 01:57:39;;;;;;;11.07;9.25;;;;;;;18.44;100.00;100407.72;5068588;28;20012;-75
2023/09/18 02:00:09;;;;;;;19.52;10.40;;;;;;;18.41;100.00;100405.25;5070467;28;20657;-75
2023/09/18 02:02:36;;;;;;;16.65;10.00;;;;;;;18.31;100.00;100381.28;5055452;28;20480;-76
2023/09/18 02:05:02;;;;;;;10.05;8.95;;;;;;;18.44;100.00;100405.06;5071068;28;20023;-75
2023/09/18 02:07:27;;;;;;;12.27;10.10;;;;;;;18.43;100.00;100401.59;5066982;28;20078;-75
2023/09/18 02:09:53;;;;;;;14.75;9.02;;;;;;;18.40;100.00;100396.50;5070600;28;20032;-75
2023/09/18 02:12:18;;;;;;;10.60;9.45;;;;;;;18.43;100.00;100404.22;5068063;28;20021;-75
2023/09/18 02:14:47;;;;;;;10.50;9.18;;;;;;;18.42;100.00;100399.91;5069708;28;20056;-75
2023/09/18 02:17:12;;;;;;;12.80;9.50;;;;;;;18.42;100.00;100386.72;5067578;28;20435;-75
2023/09/18 02:19:37;;;;;;;11.95;9.30;;;;;;;18.47;100.00;100395.19;5070127;28;20043;-75
2023/09/18 02:22:03;;;;;;;18.33;9.52;;;;;;;18.47;100.00;100389.03;5066784;28;20379;-75
2023/09/18 02:24:28;;;;;;;13.43;9.52;;;;;;;18.47;100.00;100376.72;5064306;28;20032;-75
2023/09/18 02:26:54;;;;;;;14.13;9.38;;;;;;;18.47;100.00;100371.44;5068330;28;20032;-75
2023/09/18 02:29:19;;;;;;;11.63;8.95;;;;;;;18.47;100.00;100370.56;5071956;28;20017;-75
2023/09/18 02:31:44;;;;;;;14.32;8.77;;;;;;;18.45;100.00;100360.13;5068541;28;20024;-75
2023/09/18 02:34:10;;;;;;;18.90;9.05;;;;;;;18.40;100.00;100351.63;5070867;28;20155;-75
2023/09/18 02:36:35;;;;;;;15.70;9.32;;;;;;;18.35;100.00;100345.81;5068493;28;20104;-75
2023/09/18 02:39:00;;;;;;;12.73;8.07;;;;;;;18.39;100.00;100355.22;5071263;28;20034;-75
2023/09/18 02:41:26;;;;;;;11.35;9.05;;;;;;;18.39;100.00;100352.59;5068066;28;20073;-75
2023/09/18 02:43:51;;;;;;;14.88;9.07;;;;;;;18.39;100.00;100342.03;5071294;28;20111;-75
2023/09/18 02:46:17;;;;;;;13.20;8.95;;;;;;;18.40;100.00;100327.03;5068693;28;20093;-75
2023/09/18 02:48:42;;;;;;;12.52;8.48;;;;;;;18.41;100.00;100326.09;5069235;28;20036;-75
2023/09/18 02:51:08;;;;;;;11.48;8.40;;;;;;;18.41;100.00;100320.81;5070805;28;20024;-75
2023/09/18 02:53:33;;;;;;;12.30;8.77;;;;;;;18.40;100.00;100337.59;5067803;28;20028;-75
2023/09/18 02:56:00;;;;;;;13.05;8.88;;;;;;;18.40;100.00;100327.88;5071042;28;20054;-75
2023/09/18 02:58:29;;;;;;;14.85;8.27;;;;;;;18.40;100.00;100321.75;5066806;28;20084;-75
2023/09/18 03:00:55;;;;;;;16.15;8.27;;;;;;;18.44;100.00;100295.09;5072012;28;20024;-75
2023/09/18 03:03:21;;;;;;;12.05;8.05;;;;;;;18.49;100.00;100298.25;5065897;28;20100;-75
2023/09/18 03:05:46;;;;;;;14.77;7.82;;;;;;;18.51;100.00;100295.53;5057567;28;20507;-75
2023/09/18 03:08:13;;;;;;;19.65;8.50;;;;;;;18.56;100.00;100289.94;5070128;28;20032;-75
2023/09/18 03:10:40;;;;;;;13.30;8.15;;;;;;;18.56;100.00;100274.13;5074237;28;20029;-75
2023/09/18 03:13:07;;;;;;;19.55;8.80;;;;;;;18.61;100.00;100293.16;5071138;28;20399;-75
2023/09/18 03:15:33;;;;;;;13.63;8.10;;;;;;;18.64;100.00;100277.94;5073549;28;20020;-75
2023/09/18 03:17:59;;;;;;;17.55;7.82;;;;;;;18.62;100.00;100276.34;5070479;28;20027;-75
2023/09/18 03:20:26;;;;;;;15.48;8.52;;;;;;;18.66;100.00;100291.88;5073739;28;20052;-75
2023/09/18 03:22:52;;;;;;;19.35;8.68;;;;;;;18.64;100.00;100291.16;5070508;28;20025;-75
2023/09/18 03:25:17;;;;;;;12.40;7.90;;;;;;;18.68;100.00;100297.06;5074781;28;20090;-75
2023/09/18 03:27:43;;;;;;;14.35;8.32;;;;;;;18.68;100.00;100297.91;5071524;28;20028;-75
2023/09/18 03:30:08;;;;;;;14.55;8.55;;;;;;;18.70;100.00;100301.31;5074925;28;20048;-75
2023/09/18 03:32:34;;;;;;;12.52;8.15;;;;;;;18.69;100.00;100301.41;5071640;28;20452;-75
2023/09/18 03:34:59;;;;;;;18.50;9.07;;;;;;;18.68;100.00;100305.00;5074878;28;20025;-75
2023/09/18 03:37:24;;;;;;;17.00;8.45;;;;;;;18.73;100.00;100313.47;5071255;28;20033;-75
2023/09/18 03:39:49;;;;;;;20.10;9.50;;;;;;;18.71;100.00;100316.19;5074316;28;20028;-75
2023/09/18 03:42:15;;;;;;;13.48;8.82;;;;;;;18.73;100.00;100289.72;5071489;28;20400;-76
2023/09/18 03:44:40;;;;;;;15.90;9.38;;;;;;;18.75;100.00;100308.09;5073127;28;20118;-76
2023/09/18 03:47:06;;;;;;;15.13;9.20;;;;;;;18.71;100.00;100313.56;5071518;28;20052;-75
2023/09/18 03:49:31;;;;;;;13.98;9.20;;;;;;;18.74;100.00;100312.56;5073661;28;20048;-75
2023/09/18 03:51:56;;;;;;;11.23;8.60;;;;;;;18.72;100.00;100306.50;5070367;28;20391;-75
2023/09/18 03:54:22;;;;;;;12.65;8.82;;;;;;;18.75;100.00;100311.59;5073818;28;20484;-75
2023/09/18 03:56:47;;;;;;;11.82;8.70;;;;;;;18.73;100.00;100302.06;5070713;28;20036;-75
2023/09/18 03:59:13;;;;;;;15.25;8.70;;;;;;;18.65;100.00;100294.63;5073054;28;20078;-75
2023/09/18 04:01:39;;;;;;;14.38;8.73;;;;;;;18.65;100.00;100316.59;5070766;28;20032;-75
2023/09/18 04:04:04;;;;;;;13.95;9.63;;;;;;;18.65;100.00;100329.78;5064577;28;20115;-76
2023/09/18 04:06:37;;;;;;;18.42;8.98;;;;;;;18.64;100.00;100341.31;5071437;28;20119;-76
2023/09/18 04:09:03;;;;;;;12.32;8.80;;;;;;;18.63;100.00;100336.97;5072357;28;20119;-76
2023/09/18 04:11:31;;;;;;;17.88;9.68;;;;;;;18.60;100.00;100331.88;5073268;28;20533;-75
2023/09/18 04:13:57;;;;;;;14.57;9.13;;;;;;;18.55;100.00;100319.94;5069388;28;20494;-75
2023/09/18 04:16:22;;;;;;;17.27;10.57;;;;;;;18.51;100.00;100326.34;5074470;28;20032;-75
2023/09/18 04:18:47;;;;;;;13.88;10.18;;;;;;;18.47;100.00;100318.66;5066810;28;20032;-75
2023/09/18 04:21:13;;;;;;;14.48;9.73;;;;;;;18.38;100.00;100299.94;5073810;28;20371;-75
2023/09/18 04:23:38;;;;;;;13.63;9.73;;;;;;;18.40;100.00;100300.66;5069480;28;20115;-75
2023/09/18 04:26:03;;;;;;;17.23;10.48;;;;;;;18.38;100.00;100284.09;5071059;28;20135;-75
2023/09/18 04:28:29;;;;;;;15.07;10.48;;;;;;;18.36;100.00;100292.09;5073273;28;20032;-76
2023/09/18 04:30:54;;;;;;;15.15;10.32;;;;;;;18.38;100.00;100297.28;5072122;28;20043;-75
2023/09/18 04:33:21;;;;;;;15.65;10.57;;;;;;;18.37;100.00;100285.00;5072676;28;20024;-75
2023/09/18 04:35:47;;;;;;;12.70;11.05;;;;;;;18.36;100.00;100286.81;5072966;28;20375;-75
2023/09/18 04:38:15;;;;;;;13.55;11.10;;;;;;;18.37;100.00;100290.28;5070702;28;20459;-76
2023/09/18 04:40:40;;;;;;;16.67;11.13;;;;;;;18.38;100.00;100255.06;5073039;28;20114;-76
2023/09/18 04:43:05;;;;;;;19.60;11.82;;;;;;;18.34;100.00;100246.47;5069815;28;20056;-76
2023/09/18 04:45:31;;;;;;;18.95;11.43;;;;;;;18.33;100.00;100241.31;5073673;28;20472;-75
2023/09/18 04:47:57;;;;;;;14.07;10.68;;;;;;;18.28;100.00;100244.25;5069054;28;20039;-76
2023/09/18 04:50:22;;;;;;;16.30;10.93;;;;;;;18.24;100.00;100227.75;5072784;28;20040;-75
2023/09/18 04:52:48;;;;;;;19.83;11.18;;;;;;;18.22;100.00;100229.66;5069496;28;20037;-75
2023/09/18 04:55:14;;;;;;;17.35;11.65;;;;;;;18.19;100.00;100235.13;5071783;28;20028;-75
2023/09/18 04:57:39;;;;;;;16.58;11.77;;;;;;;18.19;100.00;100229.03;5069746;28;20372;-75
2023/09/18 05:00:09;;;;;;;18.67;11.88;;;;;;;18.19;100.00;100229.03;5072398;28;20543;-75
2023/09/18 05:02:35;;;;;;;16.25;11.88;;;;;;;18.14;100.00;100226.66;5055875;28;20052;-75
2023/09/18 05:05:03;;;;;;;22.00;12.23;;;;;;;18.14;100.00;100236.38;5072397;28;20085;-76
2023/09/18 05:07:28;;;;;;;16.85;12.20;;;;;;;18.14;100.00;100231.09;5066117;28;20059;-76
2023/09/18 05:09:53;;;;;;;18.25;11.80;;;;;;;18.12;100.00;100236.47;5072170;28;20024;-76
2023/09/18 05:12:18;;;;;;;19.13;12.00;;;;;;;18.11;100.00;100236.56;5068780;28;20452;-76
2023/09/18 05:14:44;;;;;;;16.80;10.60;;;;;;;18.06;100.00;100236.03;5071507;28;20029;-75
2023/09/18 05:17:16;;;;;;;13.38;9.57;;;;;;;18.04;100.00;100241.38;5068128;28;20020;-75
2023/09/18 05:19:42;;;;;;;10.70;7.65;;;;;;;17.99;100.00;100246.13;5071142;28;20036;-76
2023/09/18 05:22:11;;;;;;;10.73;7.32;;;;;;;17.99;100.00;100257.53;5068646;28;20063;-76
2023/09/18 05:24:38;;;;;;;10.32;6.78;;;;;;;17.95;100.00;100247.25;5071831;28;20098;-75
2023/09/18 05:27:05;;;;;;;8.32;5.85;;;;;;;17.96;100.00;100260.34;5069984;28;20031;-76
2023/09/18 05:29:31;;;;;;;8.60;5.88;;;;;;;17.98;100.00;100255.84;5072126;28;20036;-75
2023/09/18 05:31:57;;;;;;;11.10;5.22;;;;;;;17.94;100.00;100238.50;5069054;28;20103;-75
2023/09/18 05:34:22;;;;;;;7.85;5.45;;;;;;;17.98;100.00;100244.41;5072733;28;20463;-76
2023/09/18 05:36:48;;;;;;;7.35;4.53;;;;;;;17.96;100.00;100244.53;5068157;28;20025;-76
2023/09/18 05:39:14;;;;;;;4.97;4.10;;;;;;;17.92;100.00;100232.50;5072452;28;20020;-75
2023/09/18 05:41:39;;;;;;;6.03;4.15;;;;;;;18.02;100.00;100243.31;5068766;28;20020;-76
2023/09/18 05:44:07;;;;;;;7.38;4.40;;;;;;;17.96;100.00;100239.25;5071317;28;20030;-75
2023/09/18 05:46:34;;;;;;;7.57;3.70;;;;;;;17.96;100.00;100249.81;5068507;28;20059;-76
2023/09/18 05:49:00;;;;;;;5.80;3.47;;;;;;;17.88;100.00;100257.34;5071398;28;20041;-76
2023/09/18 05:51:25;;;;;;;4.13;3.72;;;;;;;17.89;100.00;100258.22;5068226;28;20029;-76
2023/09/18 05:53:51;;;;;;;6.15;3.13;;;;;;;17.89;100.00;100260.84;5070966;28;20092;-76
2023/09/18 05:56:17;;;;;;;7.80;3.45;;;;;;;17.86;100.00;100264.50;5070853;28;20016;-75
2023/09/18 05:58:43;;;;;;;4.65;2.58;;;;;;;17.90;100.00;100266.00;5067819;28;20021;-76
2023/09/18 06:01:08;;;;;;;6.40;2.83;;;;;;;17.93;100.00;100263.19;5072355;28;20016;-76
2023/09/18 06:03:35;;;;;;;4.53;2.47;;;;;;;17.96;100.00;100273.53;5066460;28;20107;-76
2023/09/18 06:06:08;;;;;;;3.10;2.50;;;;;;;17.97;100.00;100277.84;5071760;28;20021;-75
2023/09/18 06:08:33;;;;;;;4.30;2.47;;;;;;;17.97;100.00;100282.28;5065893;28;20064;-75
2023/09/18 06:10:59;;;;;;;2.80;2.60;;;;;;;17.92;100.00;100273.81;5072583;28;20024;-75
2023/09/18 06:13:25;;;;;;;6.93;2.92;;;;;;;17.97;100.00;100285.78;5066403;28;20024;-76
2023/09/18 06:15:54;;;;;;;5.93;3.00;;;;;;;17.97;100.00;100277.84;5071136;28;20025;-75
2023/09/18 06:18:20;;;;;;;5.32;2.38;;;;;;;17.95;100.00;100287.69;5067767;28;20025;-76
2023/09/18 06:20:48;;;;;;;4.47;2.47;;;;;;;17.95;100.00;100290.31;5069236;28;20166;-76
2023/09/18 06:23:14;;;;;;;5.32;2.72;;;;;;;17.96;100.00;100284.09;5067342;28;20028;-76
2023/09/18 06:25:39;;;;;;;3.15;2.50;;;;;;;17.95;100.00;100306.13;5070786;28;20032;-76
2023/09/18 06:28:05;;;;;;;4.32;2.22;;;;;;;17.96;100.00;100309.63;5068580;28;20028;-76
2023/09/18 06:30:33;;;;;;;5.90;2.47;;;;;;;17.90;100.00;100297.66;5072395;28;20081;-76
2023/09/18 06:32:58;;;;;;;5.30;2.33;;;;;;;17.98;100.00;100295.41;5067859;28;20033;-76
2023/09/18 06:35:23;;;;;;;4.45;2.40;;;;;;;18.01;100.00;100305.72;5071921;28;20043;-75
2023/09/18 06:37:49;;;;;;;3.05;2.50;;;;;;;18.04;100.00;100303.84;5067774;28;20033;-76
2023/09/18 06:40:14;;;;;;;4.40;2.55;;;;;;;18.05;100.00;100308.16;5070927;28;20021;-76
2023/09/18 06:42:39;;;;;;;3.33;2.05;;;;;;;18.12;100.00;100315.63;5071177;28;20024;-76
2023/09/18 06:45:09;;;;;;;4.38;2.60;;;;;;;18.19;100.00;100302.88;5075249;28;20054;-76
2023/09/18 06:47:34;;;;;;;4.22;2.33;;;;;;;18.27;100.00;100305.03;5071401;28;20056;-76
2023/09/18 06:50:00;;;;;;;4.47;2.30;;;;;;;18.31;100.00;100315.31;5074650;28;20166;-76
2023/09/18 06:52:26;;;;;;;3.80;2.30;;;;;;;18.40;100.00;100322.59;5072362;28;20483;-76
2023/09/18 06:54:52;;;;;;;3.90;2.55;;;;;;;18.46;100.00;100331.94;5073656;28;20478;-76
2023/09/18 06:57:17;;;;;;;4.50;2.05;;;;;;;18.49;100.00;100335.22;5071680;28;20115;-76
2023/09/18 06:59:43;;;;;;;4.13;2.20;;;;;;;18.57;100.00;100342.63;5074575;28;20025;-76
2023/09/18 07:02:08;;;;;;;4.35;2.15;;;;;;;18.60;100.00;100341.59;5070943;28;20104;-76
2023/09/18 07:04:33;;;;;;;4.18;2.35;;;;;;;18.63;100.00;100338.75;5074084;28;20460;-76
2023/09/18 07:06:59;;;;;;;4.28;2.30;;;;;;;18.64;100.00;100333.38;5071240;28;20405;-76
2023/09/18 07:09:25;;;;;;;3.75;1.98;;;;;;;18.62;100.00;100337.06;5072984;28;20040;-76
2023/09/18 07:11:51;;;;;;;4.25;2.40;;;;;;;18.64;100.00;100338.66;5070814;28;20025;-76
2023/09/18 07:14:16;;;;;;;7.97;2.40;;;;;;;18.64;100.00;100351.03;5066499;28;20459;-76
2023/09/18 07:16:42;;;;;;;4.13;2.20;;;;;;;18.66;100.00;100338.56;5072088;28;20039;-76
2023/09/18 07:19:11;;;;;;;6.40;2.33;;;;;;;18.74;100.00;100348.63;5071591;28;20020;-76
2023/09/18 07:21:37;;;;;;;4.72;2.00;;;;;;;18.76;100.00;100338.84;5073945;28;20502;-76
2023/09/18 07:24:03;;;;;;;6.97;2.78;;;;;;;18.79;100.00;100343.91;5071118;28;20024;-76
2023/09/18 07:26:28;;;;;;;2.90;2.30;;;;;;;18.80;100.00;100346.47;5071657;28;20027;-75
2023/09/18 07:28:53;;;;;;;4.20;2.63;;;;;;;18.79;100.00;100322.78;5074764;28;20035;-76
2023/09/18 07:31:19;;;;;;;3.75;2.10;;;;;;;18.83;100.00;100359.44;5070908;28;20384;-76
2023/09/18 07:33:44;;;;;;;4.88;2.20;;;;;;;18.83;100.00;100354.16;5074351;28;20028;-75
2023/09/18 07:36:14;;;;;;;3.42;2.03;;;;;;;18.88;100.00;100353.88;5071651;28;20017;-75
2023/09/18 07:38:43;;;;;;;5.07;2.10;;;;;;;18.91;100.00;100351.03;5073507;28;20167;-76
2023/09/18 07:41:08;;;;;;;5.55;2.10;;;;;;;18.94;100.00;100353.47;5072074;28;20028;-76
2023/09/18 07:43:33;;;;;;;5.38;2.10;;;;;;;18.98;100.00;100356.75;5072329;28;20052;-76
2023/09/18 07:46:01;;;;;;;4.15;2.17;;;;;;;19.01;100.00;100353.94;5074273;28;20031;-76
2023/09/18 07:48:26;;;;;;;7.32;2.30;;;;;;;19.07;100.00;100357.00;5070794;28;20576;-76
2023/09/18 07:50:52;;;;;;;3.35;2.10;;;;;;;19.20;100.00;100354.41;5074234;28;20078;-76
2023/09/18 07:53:17;;;;;;;2.75;2.20;;;;;;;19.24;100.00;100363.78;5069191;28;20111;-76
2023/09/18 07:55:43;;;;;;;6.35;2.17;;;;;;;19.27;100.00;100357.47;5074388;28;20177;-76
2023/09/18 07:58:09;;;;;;;5.38;2.00;;;;;;;19.28;100.00;100353.88;5069356;28;20025;-76
2023/09/18 08:00:34;;;;;;;6.13;2.10;;;;;;;19.29;100.00;100348.50;5073546;28;20025;-76
2023/09/18 08:03:02;;;;;;;4.05;2.25;;;;;;;19.29;100.00;100339.69;5070465;28;20490;-76
2023/09/18 08:05:28;;;;;;;3.55;2.25;;;;;;;19.24;100.00;100350.59;5072022;28;20094;-76
2023/09/18 08:07:56;;;;;;;5.95;2.40;;;;;;;19.23;100.00;100346.25;5069951;28;20067;-76
2023/09/18 08:10:23;;;;;;;3.13;2.17;;;;;;;19.18;100.00;100365.03;5072671;28;20048;-76
2023/09/18 08:12:49;;;;;;;4.07;2.55;;;;;;;19.12;100.00;100368.09;5068846;28;20468;-75
2023/09/18 08:15:15;;;;;;;5.22;2.28;;;;;;;19.00;100.00;100360.13;5072795;28;20067;-76
2023/09/18 08:17:41;;;;;;;6.35;2.40;;;;;;;18.88;100.00;100370.56;5067412;28;20484;-76
2023/09/18 08:20:12;;;;;;;3.10;1.80;;;;;;;18.81;100.00;100371.94;5071850;28;20035;-76
2023/09/18 08:22:38;;;;;;;5.03;2.45;;;;;;;18.78;100.00;100374.75;5069101;28;20142;-76
2023/09/18 08:25:05;;;;;;;4.93;2.35;;;;;;;18.80;100.00;100383.44;5074185;28;20099;-75
2023/09/18 08:27:30;;;;;;;5.47;2.50;;;;;;;18.79;100.00;100380.88;5070118;28;20032;-76
2023/09/18 08:29:56;;;;;;;4.97;2.53;;;;;;;18.83;100.00;100374.44;5073001;28;20033;-76
2023/09/18 08:32:21;;;;;;;6.80;2.67;;;;;;;18.88;100.00;100381.13;5070632;28;20032;-76
2023/09/18 08:34:46;;;;;;;2.80;2.10;;;;;;;18.97;100.00;100392.06;5072032;28;20396;-76
2023/09/18 08:37:12;;;;;;;3.75;2.42;;;;;;;18.91;100.00;100401.22;5070214;28;20108;-76
2023/09/18 08:39:38;;;;;;;4.43;2.40;;;;;;;18.93;100.00;100405.47;5072128;28;20033;-76
2023/09/18 08:42:04;;;;;;;4.43;2.20;;;;;;;18.97;100.00;100400.84;5070032;28;20425;-76
2023/09/18 08:44:30;;;;;;;5.47;2.53;;;;;;;18.97;100.00;100411.41;5072664;28;20071;-76
2023/09/18 08:46:57;;;;;;;5.30;2.33;;;;;;;18.98;100.00;100412.25;5068986;28;20035;-77
2023/09/18 08:49:23;;;;;;;5.78;2.40;;;;;;;19.01;100.00;100406.75;5072168;28;20052;-77
2023/09/18 08:51:50;;;;;;;4.07;2.60;;;;;;;19.01;100.00;100404.97;5069128;28;20040;-76
2023/09/18 08:54:16;;;;;;;6.70;2.45;;;;;;;19.04;100.00;100396.84;5071507;28;20112;-76
2023/09/18 08:56:42;;;;;;;5.32;2.80;;;;;;;19.07;100.00;100393.16;5068839;28;20056;-76
2023/09/18 08:59:07;;;;;;;7.10;2.35;;;;;;;19.22;100.00;100400.03;5072081;28;20024;-76
2023/09/18 09:01:32;;;;;;;4.07;2.30;;;;;;;19.29;100.00;100396.06;5069186;28;20090;-76
2023/09/18 09:03:58;;;;;;;4.18;2.40;;;;;;;19.35;100.00;100392.97;5070254;28;20100;-76
2023/09/18 09:06:23;;;;;;;6.15;2.42;;;;;;;19.49;100.00;100402.66;5071768;28;20125;-76
2023/09/18 09:08:49;;;;;;;5.55;2.50;;;;;;;19.71;100.00;100402.03;5064422;28;20021;-76
2023/09/18 09:11:15;;;;;;;5.35;2.20;;;;;;;19.90;100.00;100395.50;5069964;28;20107;-76
2023/09/18 09:13:40;;;;;;;6.50;2.38;;;;;;;19.98;100.00;100391.38;5066232;28;20151;-75
2023/09/18 09:16:11;;;;;;;5.10;2.35;;;;;;;20.08;100.00;100399.53;5072475;28;20463;-76
2023/09/18 09:18:48;;;;;;;5.78;2.63;;;;;;;20.22;100.00;100401.19;5066240;28;20395;-76
2023/09/18 09:21:13;;;;;;;4.75;2.63;;;;;;;20.57;100.00;100398.72;5063138;28;20051;-76
2023/09/18 09:24:04;;;;;;;5.20;2.70;;;;;;;20.70;100.00;100401.28;5067017;28;20033;-76
2023/09/18 09:26:30;;;;;;;4.13;2.97;;;;;;;20.73;100.00;100416.94;5067176;28;20049;-76
2023/09/18 09:28:55;;;;;;;4.03;3.00;;;;;;;20.86;100.00;100417.75;5071549;28;20042;-76
2023/09/18 09:31:30;;;;;;;5.93;2.75;;;;;;;20.99;100.00;100415.91;5069085;28;20394;-76
2023/09/18 09:33:56;;;;;;;7.65;3.28;;;;;;;21.08;100.00;100416.19;5072172;28;20031;-76
2023/09/18 09:36:22;;;;;;;6.72;2.97;;;;;;;21.14;100.00;100413.06;5068579;28;20025;-77
2023/09/18 09:38:49;;;;;;;6.47;2.80;;;;;;;21.35;100.00;100414.13;5071701;28;20127;-76
2023/09/18 09:41:15;;;;;;;9.00;3.30;;;;;;;21.41;100.00;100426.09;5069259;28;20102;-76
2023/09/18 09:43:42;;;;;;;4.38;2.92;;;;;;;21.41;100.00;100421.63;5062076;28;20025;-76
2023/09/18 09:46:17;;;;;;;8.90;2.70;;;;;;;21.44;100.00;100418.75;5063000;28;20384;-75
2023/09/18 09:49:06;;;;;;;8.15;3.10;;;;;;;21.56;100.00;100410.84;5061642;28;20452;-76
2023/09/18 09:51:32;;;;;;;4.97;2.60;;;;;;;21.69;100.00;100414.25;5054505;28;20060;-76
2023/09/18 09:53:58;;;;;;;3.60;2.30;;;;;;;21.71;100.00;100407.88;5055279;28;20461;-75
2023/09/18 09:56:40;;;;;;;7.40;2.70;;;;;;;21.71;100.00;100413.19;5042527;28;20417;-75
2023/09/18 09:59:08;;;;;;;4.95;2.80;;;;;;;21.68;100.00;100417.84;5054680;28;20021;-75
2023/09/18 10:01:35;;;;;;;7.30;2.80;;;;;;;21.68;100.00;100421.38;5052194;28;20472;-73
2023/09/18 10:04:07;;;;;;;4.68;2.75;;;;;;;21.75;100.00;100424.41;5049534;28;20072;-74
2023/09/18 10:06:34;;;;;;;3.67;2.50;;;;;;;21.97;100.00;100426.22;5067867;28;20748;-73
2023/09/18 10:09:02;;;;;;;6.13;3.20;;;;;;;22.11;100.00;100430.47;5047838;28;20028;-74
2023/09/18 10:11:28;;;;;;;5.38;2.65;;;;;;;22.33;100.00;100437.59;5068291;28;20055;-73
2023/09/18 10:14:04;;;;;;;4.15;3.00;;;;;;;22.36;100.00;100442.66;5066987;28;20492;-74
2023/09/18 10:16:31;;;;;;;3.85;2.65;;;;;;;22.28;100.00;100442.44;5056138;28;20044;-74
2023/09/18 10:19:11;;;;;;;4.63;2.72;;;;;;;22.06;100.00;100441.44;5069273;28;20480;-74
2023/09/18 10:22:16;;;;;;;7.68;3.00;;;;;;;21.77;100.00;100435.72;5069584;28;20120;-74
2023/09/18 10:24:47;;;;;;;5.00;2.78;;;;;;;21.46;100.00;100432.75;5065109;28;20024;-74
2023/09/18 10:27:14;;;;;;;4.43;2.80;;;;;;;21.57;100.00;100439.88;5067282;28;20020;-74
2023/09/18 10:29:41;;;;;;;5.95;2.67;;;;;;;21.81;100.00;100436.31;5054604;28;20097;-74
2023/09/18 10:32:07;;;;;;;4.80;2.80;;;;;;;21.95;100.00;100444.91;5058117;28;20495;-74
2023/09/18 10:34:34;;;;;;;4.85;3.08;;;;;;;22.12;100.00;100442.75;5054841;28;20033;-73
2023/09/18 10:37:01;;;;;;;4.30;3.10;;;;;;;21.97;100.00;100436.81;5058355;28;20101;-73
2023/09/18 10:39:28;;;;;;;5.60;3.00;;;;;;;21.61;100.00;100435.19;5052485;28;20384;-73
2023/09/18 10:41:56;;;;;;;5.68;3.00;;;;;;;21.44;100.00;100449.72;5056392;28;20027;-73
2023/09/18 10:44:23;;;;;;;5.10;2.83;;;;;;;21.46;100.00;100453.97;5051481;28;20031;-73
2023/09/18 10:46:51;;;;;;;5.22;2.80;;;;;;;21.55;100.00;100446.25;5062392;28;20075;-73
2023/09/18 10:49:17;;;;;;;7.68;3.33;;;;;;;21.58;100.00;100441.59;5062713;28;20048;-73
2023/09/18 10:51:43;;;;;;;6.00;3.75;;;;;;;21.63;100.00;100442.09;5056769;28;20385;-73
2023/09/18 10:54:09;;;;;;;6.18;3.58;;;;;;;21.72;100.00;100425.47;5069796;28;20108;-73
2023/09/18 10:56:35;;;;;;;6.22;3.90;;;;;;;21.94;100.00;100432.63;5055890;28;20033;-74
2023/09/18 10:59:03;;;;;;;5.70;3.25;;;;;;;22.17;100.00;100433.53;5057271;28;20024;-75
2023/09/18 11:01:32;;;;;;;5.30;3.35;;;;;;;22.25;100.00;100424.94;5062166;28;20024;-77
2023/09/18 11:04:06;;;;;;;6.50;3.60;;;;;;;22.40;100.00;100422.91;5063077;28;20067;-76
2023/09/18 11:06:54;;;;;;;5.47;3.25;;;;;;;22.66;100.00;100421.66;5058550;28;20033;-74
2023/09/18 11:09:31;;;;;;;5.88;3.20;;;;;;;22.91;100.00;100422.28;5052904;28;20036;-75